Luray, VA

12:07 PM EDT on May 26, 2015 (GMT -0400)
Khimaira Farm | | Change Station
CLOSE
Current Station
Personal Weather Station
Location: Luray, VA
Elevation: 952 ft
Nearby Weather Stations

Elev 952 ft 38.63 °N, 78.43 °W | Updated 7 minutes ago

Scattered Clouds
Scattered Clouds
82.0 °F
Feels Like 84 °F
N
3.0
Wind Variable Wind from WNW
Gusts 9.0 mph

Today
High -- | Low -- °F
--% Chance of Precip.
Yesterday
High -- | Low -- °F
Precip. -- in
5:54 AM 8:28 PM
First Quarter, 59% visible
Pressure 30.23 in
Visibility 10.0 miles
Clouds Scattered Clouds 6000 ft
Scattered Clouds 11000 ft
Heat Index 84 °F
Dew Point 67 °F
Humidity 60%
Rainfall 0.00 in
Snow Depth Not available.
UV 9 out of 12
Pollen 7.90 out of 12
Air Quality Not available.
Flu Activity No Activity
METAR KLUA 261555Z AUTO 19005KT 10SM SCT060 SCT110 30/18 A3023 RMK AO2

More Conditions Fewer Conditions

Pressure 30.23 in
Visibility 10.0 miles
Clouds Scattered Clouds 6000 ft
Scattered Clouds 11000 ft
Heat Index 84 °F
Dew Point 67 °F
Humidity 60%
Rainfall 0.00 in
Snow Depth Not available.
UV 9 out of 12
Pollen 7.90 out of 12
Air Quality Not available.
Flu Activity No Activity
METAR KLUA 261555Z AUTO 19005KT 10SM SCT060 SCT110 30/18 A3023 RMK AO2

More Conditions Fewer Conditions

10-Day Weather Forecast

Almanac

Astronomy

May. 26, 2015 Rise Set
Actual Time
Civil Twilight
Nautical Twilight
Astronomical Twilight
Moon
Length of Visible Light
Length of Day
Tomorrow will be .
, % of the Moon is Illuminated

Today's Extremes

State Highs State Lows

Community

WunderPhotos

Upload Photos

1,824,375 photos uploaded!

WunderBlogs® & News

Nearby

Air Quality

  Air Quality AQ Index Pollutant
Not available.

Snow Depth

Station Depth Elevation

Earthquake Activity

City Distance Mag. Time & Date
Minimum magnitude displayed is 2.5.

Coastal Water Temperatures

Place Temperature

Stations

Nearby Weather Stations

Station Location Temp. Windchill Dew Point Humidity Wind Precip. Elev Updated Type